sensor_id;sensor_type;location;lat;lon;timestamp;temperature;humidity
5899;DHT22;2975;50.956;6.962;2023-04-15T00:00:50;7.30;99.90
5899;DHT22;2975;50.956;6.962;2023-04-15T00:03:16;7.30;99.90
5899;DHT22;2975;50.956;6.962;2023-04-15T00:05:43;7.20;99.90
5899;DHT22;2975;50.956;6.962;2023-04-15T00:08:09;7.10;99.90
5899;DHT22;2975;50.956;6.962;2023-04-15T00:10:34;7.10;99.90
5899;DHT22;2975;50.956;6.962;2023-04-15T00:13:00;7.10;99.90
5899;DHT22;2975;50.956;6.962;2023-04-15T00:15:27;7.00;99.90
5899;DHT22;2975;50.956;6.962;2023-04-15T00:17:52;7.00;99.90
5899;DHT22;2975;50.956;6.962;2023-04-15T00:20:18;7.00;99.90
5899;DHT22;2975;50.956;6.962;2023-04-15T00:22:43;7.00;99.90
5899;DHT22;2975;50.956;6.962;2023-04-15T00:25:09;7.00;99.90
5899;DHT22;2975;50.956;6.962;2023-04-15T00:27:35;6.90;99.90
5899;DHT22;2975;50.956;6.962;2023-04-15T00:30:00;6.90;99.90
5899;DHT22;2975;50.956;6.962;2023-04-15T00:32:26;6.80;99.90
5899;DHT22;2975;50.956;6.962;2023-04-15T00:34:52;6.70;99.90
5899;DHT22;2975;50.956;6.962;2023-04-15T00:37:18;6.80;99.90
5899;DHT22;2975;50.956;6.962;2023-04-15T00:39:43;6.70;99.90
5899;DHT22;2975;50.956;6.962;2023-04-15T00:42:09;6.70;99.90
5899;DHT22;2975;50.956;6.962;2023-04-15T00:44:35;6.70;99.90
5899;DHT22;2975;50.956;6.962;2023-04-15T00:47:00;6.70;99.90
5899;DHT22;2975;50.956;6.962;2023-04-15T00:49:28;6.70;99.90
5899;DHT22;2975;50.956;6.962;2023-04-15T00:51:54;6.70;99.90
5899;DHT22;2975;50.956;6.962;2023-04-15T00:54:20;6.60;99.90
5899;DHT22;2975;50.956;6.962;2023-04-15T00:56:45;6.60;99.90
5899;DHT22;2975;50.956;6.962;2023-04-15T00:59:11;6.60;99.90
5899;DHT22;2975;50.956;6.962;2023-04-15T01:01:37;6.60;99.90
5899;DHT22;2975;50.956;6.962;2023-04-15T01:04:03;6.60;99.90
5899;DHT22;2975;50.956;6.962;2023-04-15T01:06:30;6.60;99.90
5899;DHT22;2975;50.956;6.962;2023-04-15T01:08:57;6.50;99.90
5899;DHT22;2975;50.956;6.962;2023-04-15T01:11:23;6.50;99.90
5899;DHT22;2975;50.956;6.962;2023-04-15T01:13:50;6.50;99.90
5899;DHT22;2975;50.956;6.962;2023-04-15T01:16:17;6.40;99.90
5899;DHT22;2975;50.956;6.962;2023-04-15T01:18:43;6.50;99.90
5899;DHT22;2975;50.956;6.962;2023-04-15T01:21:08;6.40;99.90
5899;DHT22;2975;50.956;6.962;2023-04-15T01:23:36;6.40;99.90
5899;DHT22;2975;50.956;6.962;2023-04-15T01:26:03;6.30;99.90
5899;DHT22;2975;50.956;6.962;2023-04-15T01:28:30;6.30;99.90
5899;DHT22;2975;50.956;6.962;2023-04-15T01:31:10;6.20;99.90
5899;DHT22;2975;50.956;6.962;2023-04-15T01:33:37;6.20;99.90
5899;DHT22;2975;50.956;6.962;2023-04-15T01:36:03;6.30;99.90
5899;DHT22;2975;50.956;6.962;2023-04-15T01:38:30;6.30;99.90
5899;DHT22;2975;50.956;6.962;2023-04-15T01:40:56;6.30;99.90
5899;DHT22;2975;50.956;6.962;2023-04-15T01:43:22;6.30;99.90
5899;DHT22;2975;50.956;6.962;2023-04-15T01:45:48;6.30;99.90
5899;DHT22;2975;50.956;6.962;2023-04-15T01:48:13;6.20;99.90
5899;DHT22;2975;50.956;6.962;2023-04-15T01:50:39;6.20;99.90
5899;DHT22;2975;50.956;6.962;2023-04-15T01:53:05;6.20;99.90
5899;DHT22;2975;50.956;6.962;2023-04-15T01:55:30;6.20;99.90
5899;DHT22;2975;50.956;6.962;2023-04-15T01:57:56;6.20;99.90
5899;DHT22;2975;50.956;6.962;2023-04-15T02:00:22;6.40;99.90
5899;DHT22;2975;50.956;6.962;2023-04-15T02:02:48;6.40;99.90
5899;DHT22;2975;50.956;6.962;2023-04-15T02:05:14;6.40;99.90
5899;DHT22;2975;50.956;6.962;2023-04-15T02:07:41;6.50;99.90
5899;DHT22;2975;50.956;6.962;2023-04-15T02:10:08;6.50;99.90
5899;DHT22;2975;50.956;6.962;2023-04-15T02:12:34;6.40;99.90
5899;DHT22;2975;50.956;6.962;2023-04-15T02:15:00;6.40;99.90
5899;DHT22;2975;50.956;6.962;2023-04-15T02:17:26;6.40;99.90
5899;DHT22;2975;50.956;6.962;2023-04-15T02:19:52;6.30;99.90
5899;DHT22;2975;50.956;6.962;2023-04-15T02:22:18;6.30;99.90
5899;DHT22;2975;50.956;6.962;2023-04-15T02:24:44;6.20;99.90
5899;DHT22;2975;50.956;6.962;2023-04-15T02:27:14;6.10;99.90
5899;DHT22;2975;50.956;6.962;2023-04-15T02:29:39;6.10;99.90
5899;DHT22;2975;50.956;6.962;2023-04-15T02:32:05;6.00;99.90
5899;DHT22;2975;50.956;6.962;2023-04-15T02:34:31;6.00;99.90
5899;DHT22;2975;50.956;6.962;2023-04-15T02:36:58;6.00;99.90
5899;DHT22;2975;50.956;6.962;2023-04-15T02:39:23;6.00;99.90
5899;DHT22;2975;50.956;6.962;2023-04-15T02:41:49;5.90;99.90
5899;DHT22;2975;50.956;6.962;2023-04-15T02:44:18;5.90;99.90
5899;DHT22;2975;50.956;6.962;2023-04-15T02:46:47;6.00;99.90
5899;DHT22;2975;50.956;6.962;2023-04-15T02:49:17;6.00;99.90
5899;DHT22;2975;50.956;6.962;2023-04-15T02:51:42;6.00;99.90
5899;DHT22;2975;50.956;6.962;2023-04-15T02:54:09;6.00;99.90
5899;DHT22;2975;50.956;6.962;2023-04-15T02:56:35;5.90;99.90
5899;DHT22;2975;50.956;6.962;2023-04-15T02:59:00;5.90;99.90
5899;DHT22;2975;50.956;6.962;2023-04-15T03:01:26;5.80;99.90
5899;DHT22;2975;50.956;6.962;2023-04-15T03:03:53;5.80;99.90
5899;DHT22;2975;50.956;6.962;2023-04-15T03:06:18;5.80;99.90
5899;DHT22;2975;50.956;6.962;2023-04-15T03:08:45;5.70;99.90
5899;DHT22;2975;50.956;6.962;2023-04-15T03:11:11;5.70;99.90
5899;DHT22;2975;50.956;6.962;2023-04-15T03:13:37;5.70;99.90
5899;DHT22;2975;50.956;6.962;2023-04-15T03:16:04;5.60;99.90
5899;DHT22;2975;50.956;6.962;2023-04-15T03:18:30;5.60;99.90
5899;DHT22;2975;50.956;6.962;2023-04-15T03:20:55;5.50;99.90
5899;DHT22;2975;50.956;6.962;2023-04-15T03:23:21;5.60;99.90
5899;DHT22;2975;50.956;6.962;2023-04-15T03:25:46;5.60;99.90
5899;DHT22;2975;50.956;6.962;2023-04-15T03:28:12;5.70;99.90
5899;DHT22;2975;50.956;6.962;2023-04-15T03:30:37;5.70;99.90
5899;DHT22;2975;50.956;6.962;2023-04-15T03:33:03;5.70;99.90
5899;DHT22;2975;50.956;6.962;2023-04-15T03:35:29;5.70;99.90
5899;DHT22;2975;50.956;6.962;2023-04-15T03:37:55;5.60;99.90
5899;DHT22;2975;50.956;6.962;2023-04-15T03:40:20;5.60;99.90
5899;DHT22;2975;50.956;6.962;2023-04-15T03:42:46;5.50;99.90
5899;DHT22;2975;50.956;6.962;2023-04-15T03:45:12;5.60;99.90
5899;DHT22;2975;50.956;6.962;2023-04-15T03:47:37;5.50;99.90
5899;DHT22;2975;50.956;6.962;2023-04-15T03:50:03;5.50;99.90
5899;DHT22;2975;50.956;6.962;2023-04-15T03:52:30;5.40;99.90
5899;DHT22;2975;50.956;6.962;2023-04-15T03:54:55;5.30;99.90
5899;DHT22;2975;50.956;6.962;2023-04-15T03:57:21;5.30;99.90
5899;DHT22;2975;50.956;6.962;2023-04-15T03:59:46;5.30;99.90
5899;DHT22;2975;50.956;6.962;2023-04-15T04:02:12;5.30;99.90
5899;DHT22;2975;50.956;6.962;2023-04-15T04:04:37;5.30;99.90
5899;DHT22;2975;50.956;6.962;2023-04-15T04:07:03;5.30;99.90
5899;DHT22;2975;50.956;6.962;2023-04-15T04:09:29;5.30;99.90
5899;DHT22;2975;50.956;6.962;2023-04-15T04:11:54;5.30;99.90
5899;DHT22;2975;50.956;6.962;2023-04-15T04:14:20;5.30;99.90
5899;DHT22;2975;50.956;6.962;2023-04-15T04:16:50;5.30;99.90
5899;DHT22;2975;50.956;6.962;2023-04-15T04:19:16;5.30;99.90
5899;DHT22;2975;50.956;6.962;2023-04-15T04:21:44;5.30;99.90
5899;DHT22;2975;50.956;6.962;2023-04-15T04:24:09;5.30;99.90
5899;DHT22;2975;50.956;6.962;2023-04-15T04:26:35;5.20;99.90
5899;DHT22;2975;50.956;6.962;2023-04-15T04:29:00;5.20;99.90
5899;DHT22;2975;50.956;6.962;2023-04-15T04:31:26;5.10;99.90
5899;DHT22;2975;50.956;6.962;2023-04-15T04:33:52;5.10;99.90
5899;DHT22;2975;50.956;6.962;2023-04-15T04:36:17;5.00;99.90
5899;DHT22;2975;50.956;6.962;2023-04-15T04:38:43;5.00;99.90
5899;DHT22;2975;50.956;6.962;2023-04-15T04:41:08;5.00;99.90
5899;DHT22;2975;50.956;6.962;2023-04-15T04:43:34;4.90;99.90
5899;DHT22;2975;50.956;6.962;2023-04-15T04:46:00;5.00;99.90
5899;DHT22;2975;50.956;6.962;2023-04-15T04:48:26;5.00;99.90
5899;DHT22;2975;50.956;6.962;2023-04-15T04:50:51;5.00;99.90
5899;DHT22;2975;50.956;6.962;2023-04-15T04:53:17;5.10;99.90
5899;DHT22;2975;50.956;6.962;2023-04-15T04:55:43;5.10;99.90
5899;DHT22;2975;50.956;6.962;2023-04-15T04:58:08;5.10;99.90
5899;DHT22;2975;50.956;6.962;2023-04-15T05:00:34;5.00;99.90
5899;DHT22;2975;50.956;6.962;2023-04-15T05:03:00;5.10;99.90
5899;DHT22;2975;50.956;6.962;2023-04-15T05:05:25;5.20;99.90
5899;DHT22;2975;50.956;6.962;2023-04-15T05:07:51;5.30;99.90
5899;DHT22;2975;50.956;6.962;2023-04-15T05:10:17;5.40;99.90
5899;DHT22;2975;50.956;6.962;2023-04-15T05:12:43;5.50;99.90
5899;DHT22;2975;50.956;6.962;2023-04-15T05:15:09;5.50;99.90
5899;DHT22;2975;50.956;6.962;2023-04-15T05:17:34;5.60;99.90
5899;DHT22;2975;50.956;6.962;2023-04-15T05:20:01;5.70;99.90
5899;DHT22;2975;50.956;6.962;2023-04-15T05:22:26;5.80;99.90
5899;DHT22;2975;50.956;6.962;2023-04-15T05:24:52;6.10;99.90
5899;DHT22;2975;50.956;6.962;2023-04-15T05:27:18;6.60;99.90
5899;DHT22;2975;50.956;6.962;2023-04-15T05:29:43;7.30;99.90
5899;DHT22;2975;50.956;6.962;2023-04-15T05:32:09;7.90;99.90
5899;DHT22;2975;50.956;6.962;2023-04-15T05:34:35;8.70;99.90
5899;DHT22;2975;50.956;6.962;2023-04-15T05:37:00;9.40;99.90
5899;DHT22;2975;50.956;6.962;2023-04-15T05:39:26;10.40;99.90
5899;DHT22;2975;50.956;6.962;2023-04-15T05:41:52;11.70;99.90
5899;DHT22;2975;50.956;6.962;2023-04-15T05:44:18;12.80;98.00
5899;DHT22;2975;50.956;6.962;2023-04-15T05:46:43;13.20;94.30
5899;DHT22;2975;50.956;6.962;2023-04-15T05:49:09;13.50;93.50
5899;DHT22;2975;50.956;6.962;2023-04-15T05:51:35;14.00;93.40
5899;DHT22;2975;50.956;6.962;2023-04-15T05:54:00;14.50;91.70
5899;DHT22;2975;50.956;6.962;2023-04-15T05:56:26;15.00;90.70
5899;DHT22;2975;50.956;6.962;2023-04-15T05:58:52;15.00;89.00
5899;DHT22;2975;50.956;6.962;2023-04-15T06:01:17;15.50;89.60
5899;DHT22;2975;50.956;6.962;2023-04-15T06:03:43;16.00;86.10
5899;DHT22;2975;50.956;6.962;2023-04-15T06:06:09;16.00;85.70
5899;DHT22;2975;50.956;6.962;2023-04-15T06:08:34;15.70;84.00
5899;DHT22;2975;50.956;6.962;2023-04-15T06:11:00;14.80;85.70
5899;DHT22;2975;50.956;6.962;2023-04-15T06:13:26;13.50;88.90
5899;DHT22;2975;50.956;6.962;2023-04-15T06:15:52;12.50;90.50
5899;DHT22;2975;50.956;6.962;2023-04-15T06:18:18;11.80;91.70
5899;DHT22;2975;50.956;6.962;2023-04-15T06:20:44;11.20;92.90
5899;DHT22;2975;50.956;6.962;2023-04-15T06:23:10;10.90;93.90
5899;DHT22;2975;50.956;6.962;2023-04-15T06:25:36;10.70;95.10
5899;DHT22;2975;50.956;6.962;2023-04-15T06:28:02;10.60;95.50
5899;DHT22;2975;50.956;6.962;2023-04-15T06:30:27;10.60;95.60
5899;DHT22;2975;50.956;6.962;2023-04-15T06:32:54;10.60;95.70
5899;DHT22;2975;50.956;6.962;2023-04-15T06:35:20;10.70;95.70
5899;DHT22;2975;50.956;6.962;2023-04-15T06:37:46;10.70;95.30
5899;DHT22;2975;50.956;6.962;2023-04-15T06:40:12;10.70;95.80
5899;DHT22;2975;50.956;6.962;2023-04-15T06:42:38;10.80;95.50
5899;DHT22;2975;50.956;6.962;2023-04-15T06:45:04;10.80;94.30
5899;DHT22;2975;50.956;6.962;2023-04-15T06:47:29;11.00;94.70
5899;DHT22;2975;50.956;6.962;2023-04-15T06:49:55;11.00;94.40
5899;DHT22;2975;50.956;6.962;2023-04-15T06:52:21;11.20;95.10
5899;DHT22;2975;50.956;6.962;2023-04-15T06:54:46;11.50;94.00
5899;DHT22;2975;50.956;6.962;2023-04-15T06:57:12;11.30;93.00
5899;DHT22;2975;50.956;6.962;2023-04-15T06:59:37;11.40;93.60
5899;DHT22;2975;50.956;6.962;2023-04-15T07:02:03;11.60;93.70
5899;DHT22;2975;50.956;6.962;2023-04-15T07:04:29;11.90;93.00
5899;DHT22;2975;50.956;6.962;2023-04-15T07:06:54;11.80;93.10
5899;DHT22;2975;50.956;6.962;2023-04-15T07:09:22;11.80;93.30
5899;DHT22;2975;50.956;6.962;2023-04-15T07:11:47;12.10;92.60
5899;DHT22;2975;50.956;6.962;2023-04-15T07:14:14;11.80;92.90
5899;DHT22;2975;50.956;6.962;2023-04-15T07:16:39;11.60;93.50
5899;DHT22;2975;50.956;6.962;2023-04-15T07:19:05;11.60;93.90
5899;DHT22;2975;50.956;6.962;2023-04-15T07:21:30;11.60;94.20
5899;DHT22;2975;50.956;6.962;2023-04-15T07:23:56;11.80;94.00
5899;DHT22;2975;50.956;6.962;2023-04-15T07:26:23;12.00;94.10
5899;DHT22;2975;50.956;6.962;2023-04-15T07:28:49;12.10;93.90
5899;DHT22;2975;50.956;6.962;2023-04-15T07:31:14;12.20;93.90
5899;DHT22;2975;50.956;6.962;2023-04-15T07:33:41;12.50;94.10
5899;DHT22;2975;50.956;6.962;2023-04-15T07:36:06;12.80;93.70
5899;DHT22;2975;50.956;6.962;2023-04-15T07:38:32;13.00;92.90
5899;DHT22;2975;50.956;6.962;2023-04-15T07:40:58;13.20;92.20
5899;DHT22;2975;50.956;6.962;2023-04-15T07:43:23;13.20;91.70
5899;DHT22;2975;50.956;6.962;2023-04-15T07:45:49;12.90;92.00
5899;DHT22;2975;50.956;6.962;2023-04-15T07:48:15;12.90;92.50
5899;DHT22;2975;50.956;6.962;2023-04-15T07:50:41;13.00;92.40
5899;DHT22;2975;50.956;6.962;2023-04-15T07:53:07;13.00;91.70
5899;DHT22;2975;50.956;6.962;2023-04-15T07:55:32;13.00;91.80
5899;DHT22;2975;50.956;6.962;2023-04-15T07:57:58;13.10;91.70
5899;DHT22;2975;50.956;6.962;2023-04-15T08:00:24;13.00;92.00
5899;DHT22;2975;50.956;6.962;2023-04-15T08:02:49;13.20;91.70
5899;DHT22;2975;50.956;6.962;2023-04-15T08:05:17;13.40;91.80
5899;DHT22;2975;50.956;6.962;2023-04-15T08:07:43;13.60;91.80
5899;DHT22;2975;50.956;6.962;2023-04-15T08:10:08;14.00;90.80
5899;DHT22;2975;50.956;6.962;2023-04-15T08:12:34;13.80;90.20
5899;DHT22;2975;50.956;6.962;2023-04-15T08:15:00;14.10;89.00
5899;DHT22;2975;50.956;6.962;2023-04-15T08:17:27;13.90;87.50
5899;DHT22;2975;50.956;6.962;2023-04-15T08:19:52;13.80;87.60
5899;DHT22;2975;50.956;6.962;2023-04-15T08:22:18;13.70;86.10
5899;DHT22;2975;50.956;6.962;2023-04-15T08:24:44;13.50;86.70
5899;DHT22;2975;50.956;6.962;2023-04-15T08:27:10;13.60;85.20
5899;DHT22;2975;50.956;6.962;2023-04-15T08:29:35;13.50;85.10
5899;DHT22;2975;50.956;6.962;2023-04-15T08:32:01;13.60;85.90
5899;DHT22;2975;50.956;6.962;2023-04-15T08:34:27;13.60;85.00
5899;DHT22;2975;50.956;6.962;2023-04-15T08:36:53;13.30;84.40
5899;DHT22;2975;50.956;6.962;2023-04-15T08:39:19;13.50;84.90
5899;DHT22;2975;50.956;6.962;2023-04-15T08:41:55;13.80;84.70
5899;DHT22;2975;50.956;6.962;2023-04-15T08:44:23;13.50;83.50
5899;DHT22;2975;50.956;6.962;2023-04-15T08:46:50;13.40;85.10
5899;DHT22;2975;50.956;6.962;2023-04-15T08:49:18;13.30;85.20
5899;DHT22;2975;50.956;6.962;2023-04-15T08:51:45;13.20;85.70
5899;DHT22;2975;50.956;6.962;2023-04-15T08:54:11;13.40;86.30
5899;DHT22;2975;50.956;6.962;2023-04-15T08:56:38;13.50;85.10
5899;DHT22;2975;50.956;6.962;2023-04-15T08:59:03;13.30;84.50
5899;DHT22;2975;50.956;6.962;2023-04-15T09:01:31;13.40;84.90
5899;DHT22;2975;50.956;6.962;2023-04-15T09:03:58;13.40;83.70
5899;DHT22;2975;50.956;6.962;2023-04-15T09:06:24;13.30;84.20
5899;DHT22;2975;50.956;6.962;2023-04-15T09:08:50;13.30;85.10
5899;DHT22;2975;50.956;6.962;2023-04-15T09:11:17;13.50;85.20
5899;DHT22;2975;50.956;6.962;2023-04-15T09:13:43;13.80;84.70
5899;DHT22;2975;50.956;6.962;2023-04-15T09:16:08;14.10;84.80
5899;DHT22;2975;50.956;6.962;2023-04-15T09:18:37;14.10;83.40
5899;DHT22;2975;50.956;6.962;2023-04-15T09:21:20;13.70;83.70
5899;DHT22;2975;50.956;6.962;2023-04-15T09:24:00;13.50;85.40
5899;DHT22;2975;50.956;6.962;2023-04-15T09:26:34;13.70;83.90
5899;DHT22;2975;50.956;6.962;2023-04-15T09:29:08;13.60;85.10
5899;DHT22;2975;50.956;6.962;2023-04-15T09:31:35;13.50;83.60
5899;DHT22;2975;50.956;6.962;2023-04-15T09:34:01;13.50;84.90
5899;DHT22;2975;50.956;6.962;2023-04-15T09:36:27;13.30;85.10
5899;DHT22;2975;50.956;6.962;2023-04-15T09:38:57;13.20;85.50
5899;DHT22;2975;50.956;6.962;2023-04-15T09:41:24;13.20;86.50
5899;DHT22;2975;50.956;6.962;2023-04-15T09:43:50;13.10;86.60
5899;DHT22;2975;50.956;6.962;2023-04-15T09:46:16;13.20;87.10
5899;DHT22;2975;50.956;6.962;2023-04-15T09:48:41;13.10;87.70
5899;DHT22;2975;50.956;6.962;2023-04-15T09:51:07;13.10;87.60
5899;DHT22;2975;50.956;6.962;2023-04-15T09:53:35;13.10;88.40
5899;DHT22;2975;50.956;6.962;2023-04-15T09:56:01;13.50;86.90
5899;DHT22;2975;50.956;6.962;2023-04-15T09:58:29;13.40;86.30
5899;DHT22;2975;50.956;6.962;2023-04-15T10:00:56;13.30;86.90
5899;DHT22;2975;50.956;6.962;2023-04-15T10:03:24;13.40;88.40
5899;DHT22;2975;50.956;6.962;2023-04-15T10:05:54;13.70;88.20
5899;DHT22;2975;50.956;6.962;2023-04-15T10:08:23;14.00;87.20
5899;DHT22;2975;50.956;6.962;2023-04-15T10:10:50;14.20;86.00
5899;DHT22;2975;50.956;6.962;2023-04-15T10:13:24;13.80;86.90
5899;DHT22;2975;50.956;6.962;2023-04-15T10:16:05;13.70;87.50
5899;DHT22;2975;50.956;6.962;2023-04-15T10:18:34;13.80;88.30
5899;DHT22;2975;50.956;6.962;2023-04-15T10:21:01;13.60;89.00
5899;DHT22;2975;50.956;6.962;2023-04-15T10:23:27;13.70;89.50
5899;DHT22;2975;50.956;6.962;2023-04-15T10:25:54;13.70;89.60
5899;DHT22;2975;50.956;6.962;2023-04-15T10:28:21;13.70;89.70
5899;DHT22;2975;50.956;6.962;2023-04-15T10:30:48;13.70;90.00
5899;DHT22;2975;50.956;6.962;2023-04-15T10:33:17;13.70;89.70
5899;DHT22;2975;50.956;6.962;2023-04-15T10:35:45;13.60;90.00
5899;DHT22;2975;50.956;6.962;2023-04-15T10:38:36;13.70;90.00
5899;DHT22;2975;50.956;6.962;2023-04-15T10:43:39;14.00;89.70
5899;DHT22;2975;50.956;6.962;2023-04-15T10:46:05;14.20;89.80
5899;DHT22;2975;50.956;6.962;2023-04-15T10:48:32;14.20;90.00
5899;DHT22;2975;50.956;6.962;2023-04-15T10:51:00;14.30;89.70
5899;DHT22;2975;50.956;6.962;2023-04-15T10:53:30;14.40;88.60
5899;DHT22;2975;50.956;6.962;2023-04-15T10:55:59;14.30;88.70
5899;DHT22;2975;50.956;6.962;2023-04-15T10:58:25;14.10;87.70
5899;DHT22;2975;50.956;6.962;2023-04-15T11:00:52;14.00;88.60
5899;DHT22;2975;50.956;6.962;2023-04-15T11:03:50;13.90;88.50
5899;DHT22;2975;50.956;6.962;2023-04-15T11:06:16;14.10;88.50
5899;DHT22;2975;50.956;6.962;2023-04-15T11:09:02;14.30;88.50
5899;DHT22;2975;50.956;6.962;2023-04-15T11:12:08;14.30;87.50
5899;DHT22;2975;50.956;6.962;2023-04-15T11:14:40;14.10;88.10
5899;DHT22;2975;50.956;6.962;2023-04-15T11:17:08;14.00;88.80
5899;DHT22;2975;50.956;6.962;2023-04-15T11:19:38;14.10;89.40
5899;DHT22;2975;50.956;6.962;2023-04-15T11:22:10;14.50;87.80
5899;DHT22;2975;50.956;6.962;2023-04-15T11:24:46;14.70;87.30
5899;DHT22;2975;50.956;6.962;2023-04-15T11:27:22;14.70;87.00
5899;DHT22;2975;50.956;6.962;2023-04-15T11:29:48;14.70;87.80
5899;DHT22;2975;50.956;6.962;2023-04-15T11:32:14;14.60;88.00
5899;DHT22;2975;50.956;6.962;2023-04-15T11:34:40;14.20;89.10
5899;DHT22;2975;50.956;6.962;2023-04-15T11:37:06;14.10;89.90
5899;DHT22;2975;50.956;6.962;2023-04-15T11:39:32;14.40;89.10
5899;DHT22;2975;50.956;6.962;2023-04-15T11:41:58;14.10;89.70
5899;DHT22;2975;50.956;6.962;2023-04-15T11:44:24;14.50;90.00
5899;DHT22;2975;50.956;6.962;2023-04-15T11:46:50;14.50;89.20
5899;DHT22;2975;50.956;6.962;2023-04-15T11:49:26;14.40;89.50
5899;DHT22;2975;50.956;6.962;2023-04-15T11:51:52;14.40;90.10
5899;DHT22;2975;50.956;6.962;2023-04-15T11:54:18;14.20;90.10
5899;DHT22;2975;50.956;6.962;2023-04-15T11:56:50;14.10;90.40
5899;DHT22;2975;50.956;6.962;2023-04-15T11:59:16;13.90;90.70
5899;DHT22;2975;50.956;6.962;2023-04-15T12:01:42;13.90;91.00
5899;DHT22;2975;50.956;6.962;2023-04-15T12:04:15;13.70;91.10
5899;DHT22;2975;50.956;6.962;2023-04-15T12:06:44;13.60;91.60
5899;DHT22;2975;50.956;6.962;2023-04-15T12:09:16;13.80;91.20
5899;DHT22;2975;50.956;6.962;2023-04-15T12:11:46;13.50;91.60
5899;DHT22;2975;50.956;6.962;2023-04-15T12:16:53;13.40;92.10
5899;DHT22;2975;50.956;6.962;2023-04-15T12:19:28;13.40;92.50
5899;DHT22;2975;50.956;6.962;2023-04-15T12:22:02;13.30;92.80
5899;DHT22;2975;50.956;6.962;2023-04-15T12:24:31;13.20;92.60
5899;DHT22;2975;50.956;6.962;2023-04-15T12:27:24;13.10;92.90
5899;DHT22;2975;50.956;6.962;2023-04-15T12:29:46;13.00;93.30
5899;DHT22;2975;50.956;6.962;2023-04-15T12:32:14;12.70;93.60
5899;DHT22;2975;50.956;6.962;2023-04-15T12:34:49;12.80;93.70
5899;DHT22;2975;50.956;6.962;2023-04-15T12:37:15;12.80;93.60
5899;DHT22;2975;50.956;6.962;2023-04-15T12:39:43;12.60;94.10
5899;DHT22;2975;50.956;6.962;2023-04-15T12:42:09;12.50;94.40
5899;DHT22;2975;50.956;6.962;2023-04-15T12:44:36;12.40;95.10
5899;DHT22;2975;50.956;6.962;2023-04-15T12:47:02;12.40;95.40
5899;DHT22;2975;50.956;6.962;2023-04-15T12:49:30;12.50;95.00
5899;DHT22;2975;50.956;6.962;2023-04-15T12:51:58;12.40;95.40
5899;DHT22;2975;50.956;6.962;2023-04-15T12:54:25;12.30;95.70
5899;DHT22;2975;50.956;6.962;2023-04-15T12:56:52;12.20;95.80
5899;DHT22;2975;50.956;6.962;2023-04-15T12:59:19;12.20;96.40
5899;DHT22;2975;50.956;6.962;2023-04-15T13:01:46;12.00;96.80
5899;DHT22;2975;50.956;6.962;2023-04-15T13:04:12;12.10;96.90
5899;DHT22;2975;50.956;6.962;2023-04-15T13:06:38;12.00;97.30
5899;DHT22;2975;50.956;6.962;2023-04-15T13:09:04;12.20;97.00
5899;DHT22;2975;50.956;6.962;2023-04-15T13:11:30;12.10;97.20
5899;DHT22;2975;50.956;6.962;2023-04-15T13:13:59;12.00;97.50
5899;DHT22;2975;50.956;6.962;2023-04-15T13:16:25;11.90;97.80
5899;DHT22;2975;50.956;6.962;2023-04-15T13:18:50;12.00;98.10
5899;DHT22;2975;50.956;6.962;2023-04-15T13:21:18;12.10;98.00
5899;DHT22;2975;50.956;6.962;2023-04-15T13:23:44;12.30;97.10
5899;DHT22;2975;50.956;6.962;2023-04-15T13:26:10;12.30;97.10
5899;DHT22;2975;50.956;6.962;2023-04-15T13:28:36;12.10;97.60
5899;DHT22;2975;50.956;6.962;2023-04-15T13:31:01;12.00;98.00
5899;DHT22;2975;50.956;6.962;2023-04-15T13:33:27;12.00;97.80
5899;DHT22;2975;50.956;6.962;2023-04-15T13:35:53;12.00;97.90
5899;DHT22;2975;50.956;6.962;2023-04-15T13:38:18;11.90;98.00
5899;DHT22;2975;50.956;6.962;2023-04-15T13:40:44;11.80;98.40
5899;DHT22;2975;50.956;6.962;2023-04-15T13:43:10;11.70;98.70
5899;DHT22;2975;50.956;6.962;2023-04-15T13:45:36;11.60;98.90
5899;DHT22;2975;50.956;6.962;2023-04-15T13:48:01;11.70;98.60
5899;DHT22;2975;50.956;6.962;2023-04-15T13:50:27;11.90;98.70
5899;DHT22;2975;50.956;6.962;2023-04-15T13:52:53;11.80;98.70
5899;DHT22;2975;50.956;6.962;2023-04-15T13:55:19;11.80;98.90
5899;DHT22;2975;50.956;6.962;2023-04-15T13:57:44;11.90;98.90
5899;DHT22;2975;50.956;6.962;2023-04-15T14:00:10;12.00;98.30
5899;DHT22;2975;50.956;6.962;2023-04-15T14:02:36;12.10;98.30
5899;DHT22;2975;50.956;6.962;2023-04-15T14:05:02;12.20;96.80
5899;DHT22;2975;50.956;6.962;2023-04-15T14:07:30;12.20;97.00
5899;DHT22;2975;50.956;6.962;2023-04-15T14:09:56;12.20;97.10
5899;DHT22;2975;50.956;6.962;2023-04-15T14:12:22;12.00;97.30
5899;DHT22;2975;50.956;6.962;2023-04-15T14:14:47;12.10;97.50
5899;DHT22;2975;50.956;6.962;2023-04-15T14:17:13;12.50;97.80
5899;DHT22;2975;50.956;6.962;2023-04-15T14:19:39;12.50;96.80
5899;DHT22;2975;50.956;6.962;2023-04-15T14:22:04;12.50;97.20
5899;DHT22;2975;50.956;6.962;2023-04-15T14:24:30;12.60;97.40
5899;DHT22;2975;50.956;6.962;2023-04-15T14:26:57;12.80;97.10
5899;DHT22;2975;50.956;6.962;2023-04-15T14:29:22;12.70;97.40
5899;DHT22;2975;50.956;6.962;2023-04-15T14:31:48;12.90;97.00
5899;DHT22;2975;50.956;6.962;2023-04-15T14:34:15;12.70;97.40
5899;DHT22;2975;50.956;6.962;2023-04-15T14:36:41;12.60;97.60
5899;DHT22;2975;50.956;6.962;2023-04-15T14:39:08;12.40;98.40
5899;DHT22;2975;50.956;6.962;2023-04-15T14:41:33;12.60;98.70
5899;DHT22;2975;50.956;6.962;2023-04-15T14:43:59;12.50;98.70
5899;DHT22;2975;50.956;6.962;2023-04-15T14:46:25;12.40;98.60
5899;DHT22;2975;50.956;6.962;2023-04-15T14:48:51;12.10;99.90
5899;DHT22;2975;50.956;6.962;2023-04-15T14:51:17;11.90;99.90
5899;DHT22;2975;50.956;6.962;2023-04-15T14:53:43;11.80;99.90
5899;DHT22;2975;50.956;6.962;2023-04-15T14:56:09;11.80;99.90
5899;DHT22;2975;50.956;6.962;2023-04-15T14:58:34;11.80;99.90
5899;DHT22;2975;50.956;6.962;2023-04-15T15:01:00;11.70;99.90
5899;DHT22;2975;50.956;6.962;2023-04-15T15:03:27;11.80;99.90
5899;DHT22;2975;50.956;6.962;2023-04-15T15:05:53;11.80;99.90
5899;DHT22;2975;50.956;6.962;2023-04-15T15:08:19;12.10;99.90
5899;DHT22;2975;50.956;6.962;2023-04-15T15:10:45;12.50;99.90
5899;DHT22;2975;50.956;6.962;2023-04-15T15:13:11;12.50;99.90
5899;DHT22;2975;50.956;6.962;2023-04-15T15:15:37;12.40;99.90
5899;DHT22;2975;50.956;6.962;2023-04-15T15:18:03;12.50;99.90
5899;DHT22;2975;50.956;6.962;2023-04-15T15:20:29;12.50;99.90
5899;DHT22;2975;50.956;6.962;2023-04-15T15:22:55;12.40;99.80
5899;DHT22;2975;50.956;6.962;2023-04-15T15:25:21;12.10;99.90
5899;DHT22;2975;50.956;6.962;2023-04-15T15:27:47;11.70;99.90
5899;DHT22;2975;50.956;6.962;2023-04-15T15:30:13;11.70;99.90
5899;DHT22;2975;50.956;6.962;2023-04-15T15:32:39;11.70;99.90
5899;DHT22;2975;50.956;6.962;2023-04-15T15:35:05;11.70;99.90
5899;DHT22;2975;50.956;6.962;2023-04-15T15:37:31;11.60;99.90
5899;DHT22;2975;50.956;6.962;2023-04-15T15:39:57;11.60;99.90
5899;DHT22;2975;50.956;6.962;2023-04-15T15:42:23;11.50;99.90
5899;DHT22;2975;50.956;6.962;2023-04-15T15:44:49;11.50;99.90
5899;DHT22;2975;50.956;6.962;2023-04-15T15:47:15;11.60;99.90
5899;DHT22;2975;50.956;6.962;2023-04-15T15:49:41;11.50;99.90
5899;DHT22;2975;50.956;6.962;2023-04-15T15:52:06;11.30;99.90
5899;DHT22;2975;50.956;6.962;2023-04-15T15:54:33;11.20;99.90
5899;DHT22;2975;50.956;6.962;2023-04-15T15:56:59;11.20;99.90
5899;DHT22;2975;50.956;6.962;2023-04-15T15:59:24;11.00;99.90
5899;DHT22;2975;50.956;6.962;2023-04-15T16:01:50;10.90;99.90
5899;DHT22;2975;50.956;6.962;2023-04-15T16:04:16;11.00;99.90
5899;DHT22;2975;50.956;6.962;2023-04-15T16:06:41;11.00;99.90
5899;DHT22;2975;50.956;6.962;2023-04-15T16:09:09;10.90;99.90